sensor_id;sensor_type;location;lat;lon;timestamp;temperature;humidity
19152;DHT22;9708;53.114;9.388;2024-02-26T00:02:08;2.10;99.90
19152;DHT22;9708;53.114;9.388;2024-02-26T00:04:36;2.00;99.90
19152;DHT22;9708;53.114;9.388;2024-02-26T00:07:03;2.00;99.90
19152;DHT22;9708;53.114;9.388;2024-02-26T00:09:30;2.10;99.90
19152;DHT22;9708;53.114;9.388;2024-02-26T00:11:57;2.00;99.90
19152;DHT22;9708;53.114;9.388;2024-02-26T00:14:24;2.00;99.90
19152;DHT22;9708;53.114;9.388;2024-02-26T00:16:51;2.00;99.90
19152;DHT22;9708;53.114;9.388;2024-02-26T00:19:18;2.00;99.90
19152;DHT22;9708;53.114;9.388;2024-02-26T00:21:46;2.00;99.90
19152;DHT22;9708;53.114;9.388;2024-02-26T00:24:13;2.00;99.90
19152;DHT22;9708;53.114;9.388;2024-02-26T00:26:40;1.90;99.90
19152;DHT22;9708;53.114;9.388;2024-02-26T00:29:07;1.90;99.90
19152;DHT22;9708;53.114;9.388;2024-02-26T00:31:34;1.90;99.90
19152;DHT22;9708;53.114;9.388;2024-02-26T00:34:00;1.90;99.90
19152;DHT22;9708;53.114;9.388;2024-02-26T00:36:27;1.80;99.90
19152;DHT22;9708;53.114;9.388;2024-02-26T00:38:56;1.80;99.90
19152;DHT22;9708;53.114;9.388;2024-02-26T00:41:22;1.80;99.90
19152;DHT22;9708;53.114;9.388;2024-02-26T00:43:49;1.80;99.90
19152;DHT22;9708;53.114;9.388;2024-02-26T00:46:16;1.80;99.90
19152;DHT22;9708;53.114;9.388;2024-02-26T00:48:43;1.80;99.90
19152;DHT22;9708;53.114;9.388;2024-02-26T00:51:10;1.60;99.90
19152;DHT22;9708;53.114;9.388;2024-02-26T00:53:37;1.60;99.90
19152;DHT22;9708;53.114;9.388;2024-02-26T00:56:05;1.60;99.90
19152;DHT22;9708;53.114;9.388;2024-02-26T00:58:32;1.60;99.90
19152;DHT22;9708;53.114;9.388;2024-02-26T01:00:59;1.60;99.90
19152;DHT22;9708;53.114;9.388;2024-02-26T01:03:26;1.70;99.90
19152;DHT22;9708;53.114;9.388;2024-02-26T01:05:53;1.60;99.90
19152;DHT22;9708;53.114;9.388;2024-02-26T01:08:19;1.60;99.90
19152;DHT22;9708;53.114;9.388;2024-02-26T01:10:46;1.60;99.90
19152;DHT22;9708;53.114;9.388;2024-02-26T01:13:15;1.60;99.90
19152;DHT22;9708;53.114;9.388;2024-02-26T01:15:41;1.50;99.90
19152;DHT22;9708;53.114;9.388;2024-02-26T01:18:09;1.50;99.90
19152;DHT22;9708;53.114;9.388;2024-02-26T01:20:36;1.40;99.90
19152;DHT22;9708;53.114;9.388;2024-02-26T01:23:03;1.50;99.90
19152;DHT22;9708;53.114;9.388;2024-02-26T01:25:30;1.50;99.90
19152;DHT22;9708;53.114;9.388;2024-02-26T01:27:57;1.60;99.90
19152;DHT22;9708;53.114;9.388;2024-02-26T01:30:25;1.60;99.90
19152;DHT22;9708;53.114;9.388;2024-02-26T01:32:52;1.70;99.90
19152;DHT22;9708;53.114;9.388;2024-02-26T01:35:19;1.70;99.90
19152;DHT22;9708;53.114;9.388;2024-02-26T01:37:46;1.70;99.90
19152;DHT22;9708;53.114;9.388;2024-02-26T01:40:13;1.70;99.90
19152;DHT22;9708;53.114;9.388;2024-02-26T01:42:43;1.70;99.90
19152;DHT22;9708;53.114;9.388;2024-02-26T01:45:14;1.70;99.90
19152;DHT22;9708;53.114;9.388;2024-02-26T01:47:49;1.80;99.90
19152;DHT22;9708;53.114;9.388;2024-02-26T01:50:16;1.80;99.90
19152;DHT22;9708;53.114;9.388;2024-02-26T01:52:44;1.90;99.90
19152;DHT22;9708;53.114;9.388;2024-02-26T01:55:12;1.90;99.90
19152;DHT22;9708;53.114;9.388;2024-02-26T01:57:41;1.80;99.90
19152;DHT22;9708;53.114;9.388;2024-02-26T02:00:09;1.70;99.90
19152;DHT22;9708;53.114;9.388;2024-02-26T02:02:36;1.70;99.90
19152;DHT22;9708;53.114;9.388;2024-02-26T02:05:06;1.90;99.90
19152;DHT22;9708;53.114;9.388;2024-02-26T02:07:35;1.90;99.90
19152;DHT22;9708;53.114;9.388;2024-02-26T02:10:03;1.90;99.90
19152;DHT22;9708;53.114;9.388;2024-02-26T02:12:32;1.80;99.90
19152;DHT22;9708;53.114;9.388;2024-02-26T02:14:59;1.80;99.90
19152;DHT22;9708;53.114;9.388;2024-02-26T02:17:27;1.60;99.90
19152;DHT22;9708;53.114;9.388;2024-02-26T02:19:54;1.60;99.90
19152;DHT22;9708;53.114;9.388;2024-02-26T02:22:22;1.60;99.90
19152;DHT22;9708;53.114;9.388;2024-02-26T02:24:51;1.50;99.90
19152;DHT22;9708;53.114;9.388;2024-02-26T02:27:18;1.50;99.90
19152;DHT22;9708;53.114;9.388;2024-02-26T02:29:46;1.50;99.90
19152;DHT22;9708;53.114;9.388;2024-02-26T02:32:14;1.50;99.90
19152;DHT22;9708;53.114;9.388;2024-02-26T02:34:41;1.40;99.90
19152;DHT22;9708;53.114;9.388;2024-02-26T02:37:08;1.40;99.90
19152;DHT22;9708;53.114;9.388;2024-02-26T02:39:36;1.40;99.90
19152;DHT22;9708;53.114;9.388;2024-02-26T02:42:04;1.40;99.90
19152;DHT22;9708;53.114;9.388;2024-02-26T02:44:30;1.40;99.90
19152;DHT22;9708;53.114;9.388;2024-02-26T02:46:57;1.40;99.90
19152;DHT22;9708;53.114;9.388;2024-02-26T02:49:24;1.40;99.90
19152;DHT22;9708;53.114;9.388;2024-02-26T02:51:51;1.40;99.90
19152;DHT22;9708;53.114;9.388;2024-02-26T02:54:19;1.50;99.90
19152;DHT22;9708;53.114;9.388;2024-02-26T02:56:48;1.50;99.90
19152;DHT22;9708;53.114;9.388;2024-02-26T02:59:14;1.50;99.90
19152;DHT22;9708;53.114;9.388;2024-02-26T03:01:41;1.40;99.90
19152;DHT22;9708;53.114;9.388;2024-02-26T03:04:08;1.40;99.90
19152;DHT22;9708;53.114;9.388;2024-02-26T03:06:35;1.50;99.90
19152;DHT22;9708;53.114;9.388;2024-02-26T03:09:02;1.50;99.90
19152;DHT22;9708;53.114;9.388;2024-02-26T03:11:28;1.40;99.90
19152;DHT22;9708;53.114;9.388;2024-02-26T03:13:57;1.30;99.90
19152;DHT22;9708;53.114;9.388;2024-02-26T03:16:23;1.30;99.90
19152;DHT22;9708;53.114;9.388;2024-02-26T03:18:50;1.30;99.90
19152;DHT22;9708;53.114;9.388;2024-02-26T03:21:18;1.30;99.90
19152;DHT22;9708;53.114;9.388;2024-02-26T03:23:45;1.30;99.90
19152;DHT22;9708;53.114;9.388;2024-02-26T03:26:11;1.20;99.90
19152;DHT22;9708;53.114;9.388;2024-02-26T03:28:40;1.10;99.90
19152;DHT22;9708;53.114;9.388;2024-02-26T03:31:08;1.20;99.90
19152;DHT22;9708;53.114;9.388;2024-02-26T03:33:36;1.20;99.90
19152;DHT22;9708;53.114;9.388;2024-02-26T03:36:03;1.20;99.90
19152;DHT22;9708;53.114;9.388;2024-02-26T03:38:30;1.30;99.90
19152;DHT22;9708;53.114;9.388;2024-02-26T03:40:57;1.30;99.90
19152;DHT22;9708;53.114;9.388;2024-02-26T03:43:24;1.30;99.90
19152;DHT22;9708;53.114;9.388;2024-02-26T03:45:51;1.40;99.90
19152;DHT22;9708;53.114;9.388;2024-02-26T03:48:20;1.40;99.90
19152;DHT22;9708;53.114;9.388;2024-02-26T03:50:46;1.40;99.90
19152;DHT22;9708;53.114;9.388;2024-02-26T03:53:13;1.30;99.90
19152;DHT22;9708;53.114;9.388;2024-02-26T03:55:40;1.40;99.90
19152;DHT22;9708;53.114;9.388;2024-02-26T03:58:08;1.40;99.90
19152;DHT22;9708;53.114;9.388;2024-02-26T04:00:35;1.40;99.90
19152;DHT22;9708;53.114;9.388;2024-02-26T04:03:01;1.40;99.90
19152;DHT22;9708;53.114;9.388;2024-02-26T04:05:30;1.60;99.90
19152;DHT22;9708;53.114;9.388;2024-02-26T04:07:57;1.70;99.90
19152;DHT22;9708;53.114;9.388;2024-02-26T04:10:24;1.60;99.90
19152;DHT22;9708;53.114;9.388;2024-02-26T04:12:51;1.50;99.90
19152;DHT22;9708;53.114;9.388;2024-02-26T04:15:17;1.50;99.90
19152;DHT22;9708;53.114;9.388;2024-02-26T04:17:44;1.40;99.90
19152;DHT22;9708;53.114;9.388;2024-02-26T04:20:14;1.40;99.90
19152;DHT22;9708;53.114;9.388;2024-02-26T04:22:42;1.30;99.90
19152;DHT22;9708;53.114;9.388;2024-02-26T04:25:09;1.30;99.90
19152;DHT22;9708;53.114;9.388;2024-02-26T04:27:36;1.30;99.90
19152;DHT22;9708;53.114;9.388;2024-02-26T04:30:04;1.30;99.90
19152;DHT22;9708;53.114;9.388;2024-02-26T04:32:31;1.40;99.90
19152;DHT22;9708;53.114;9.388;2024-02-26T04:34:58;1.50;99.90
19152;DHT22;9708;53.114;9.388;2024-02-26T04:37:25;1.50;99.90
19152;DHT22;9708;53.114;9.388;2024-02-26T04:39:58;1.50;99.90
19152;DHT22;9708;53.114;9.388;2024-02-26T04:42:24;1.50;99.90
19152;DHT22;9708;53.114;9.388;2024-02-26T04:44:51;1.60;99.90
19152;DHT22;9708;53.114;9.388;2024-02-26T04:47:18;1.50;99.90
19152;DHT22;9708;53.114;9.388;2024-02-26T04:49:45;1.60;99.90
19152;DHT22;9708;53.114;9.388;2024-02-26T04:52:12;1.60;99.90
19152;DHT22;9708;53.114;9.388;2024-02-26T04:54:39;1.60;99.90
19152;DHT22;9708;53.114;9.388;2024-02-26T04:57:07;1.70;99.90
19152;DHT22;9708;53.114;9.388;2024-02-26T04:59:33;1.70;99.90
19152;DHT22;9708;53.114;9.388;2024-02-26T05:02:00;1.70;99.90
19152;DHT22;9708;53.114;9.388;2024-02-26T05:04:27;1.80;99.90
19152;DHT22;9708;53.114;9.388;2024-02-26T05:06:54;1.80;99.90
19152;DHT22;9708;53.114;9.388;2024-02-26T05:09:22;1.80;99.90
19152;DHT22;9708;53.114;9.388;2024-02-26T05:11:49;1.80;99.90
19152;DHT22;9708;53.114;9.388;2024-02-26T05:14:17;1.80;99.90
19152;DHT22;9708;53.114;9.388;2024-02-26T05:16:44;1.80;99.90
19152;DHT22;9708;53.114;9.388;2024-02-26T05:19:11;1.90;99.90
19152;DHT22;9708;53.114;9.388;2024-02-26T05:21:38;1.90;99.90
19152;DHT22;9708;53.114;9.388;2024-02-26T05:24:06;2.00;99.90
19152;DHT22;9708;53.114;9.388;2024-02-26T05:26:33;2.10;99.90
19152;DHT22;9708;53.114;9.388;2024-02-26T05:29:00;2.10;99.90
19152;DHT22;9708;53.114;9.388;2024-02-26T05:31:28;2.10;99.90
19152;DHT22;9708;53.114;9.388;2024-02-26T05:33:55;2.20;99.90
19152;DHT22;9708;53.114;9.388;2024-02-26T05:36:22;2.20;99.90
19152;DHT22;9708;53.114;9.388;2024-02-26T05:38:50;2.20;99.90
19152;DHT22;9708;53.114;9.388;2024-02-26T05:41:17;2.10;99.90
19152;DHT22;9708;53.114;9.388;2024-02-26T05:43:48;2.20;99.90
19152;DHT22;9708;53.114;9.388;2024-02-26T05:46:16;2.10;99.90
19152;DHT22;9708;53.114;9.388;2024-02-26T05:48:46;2.10;99.90
19152;DHT22;9708;53.114;9.388;2024-02-26T05:51:13;2.10;99.90
19152;DHT22;9708;53.114;9.388;2024-02-26T05:53:40;2.20;99.90
19152;DHT22;9708;53.114;9.388;2024-02-26T05:56:07;2.20;99.90
19152;DHT22;9708;53.114;9.388;2024-02-26T05:58:34;2.20;99.90
19152;DHT22;9708;53.114;9.388;2024-02-26T06:01:01;2.20;99.90
19152;DHT22;9708;53.114;9.388;2024-02-26T06:03:29;2.20;99.90
19152;DHT22;9708;53.114;9.388;2024-02-26T06:05:57;2.30;99.90
19152;DHT22;9708;53.114;9.388;2024-02-26T06:08:24;2.30;99.90
19152;DHT22;9708;53.114;9.388;2024-02-26T06:10:50;2.40;99.90
19152;DHT22;9708;53.114;9.388;2024-02-26T06:13:17;2.40;99.90
19152;DHT22;9708;53.114;9.388;2024-02-26T06:15:44;2.40;99.90
19152;DHT22;9708;53.114;9.388;2024-02-26T06:18:11;2.40;99.90
19152;DHT22;9708;53.114;9.388;2024-02-26T06:20:38;2.40;99.90
19152;DHT22;9708;53.114;9.388;2024-02-26T06:23:06;2.60;99.90
19152;DHT22;9708;53.114;9.388;2024-02-26T06:25:33;2.50;99.90
19152;DHT22;9708;53.114;9.388;2024-02-26T06:28:00;2.60;99.90
19152;DHT22;9708;53.114;9.388;2024-02-26T06:30:27;2.60;99.90
19152;DHT22;9708;53.114;9.388;2024-02-26T06:32:54;2.60;99.90
19152;DHT22;9708;53.114;9.388;2024-02-26T06:35:20;2.60;99.90
19152;DHT22;9708;53.114;9.388;2024-02-26T06:37:47;2.70;99.90
19152;DHT22;9708;53.114;9.388;2024-02-26T06:40:17;2.70;99.90
19152;DHT22;9708;53.114;9.388;2024-02-26T06:42:44;2.60;99.90
19152;DHT22;9708;53.114;9.388;2024-02-26T06:45:11;2.70;99.90
19152;DHT22;9708;53.114;9.388;2024-02-26T06:47:38;2.70;99.90
19152;DHT22;9708;53.114;9.388;2024-02-26T06:50:05;2.70;99.90
19152;DHT22;9708;53.114;9.388;2024-02-26T06:52:32;2.70;99.90
19152;DHT22;9708;53.114;9.388;2024-02-26T06:54:59;2.70;99.90
19152;DHT22;9708;53.114;9.388;2024-02-26T06:57:27;2.70;99.90
19152;DHT22;9708;53.114;9.388;2024-02-26T06:59:54;2.80;99.90
19152;DHT22;9708;53.114;9.388;2024-02-26T07:02:20;2.80;99.90
19152;DHT22;9708;53.114;9.388;2024-02-26T07:04:47;2.80;99.90
19152;DHT22;9708;53.114;9.388;2024-02-26T07:07:14;2.80;99.90
19152;DHT22;9708;53.114;9.388;2024-02-26T07:09:43;2.90;99.90
19152;DHT22;9708;53.114;9.388;2024-02-26T07:12:10;3.00;99.90
19152;DHT22;9708;53.114;9.388;2024-02-26T07:14:38;3.00;99.90
19152;DHT22;9708;53.114;9.388;2024-02-26T07:17:05;3.00;99.90
19152;DHT22;9708;53.114;9.388;2024-02-26T07:19:32;3.00;99.90
19152;DHT22;9708;53.114;9.388;2024-02-26T07:21:59;3.10;99.90
19152;DHT22;9708;53.114;9.388;2024-02-26T07:24:27;3.00;99.90
19152;DHT22;9708;53.114;9.388;2024-02-26T07:26:53;3.10;99.90
19152;DHT22;9708;53.114;9.388;2024-02-26T07:29:21;3.10;99.90
19152;DHT22;9708;53.114;9.388;2024-02-26T07:31:49;3.20;99.90
19152;DHT22;9708;53.114;9.388;2024-02-26T07:34:16;3.20;99.90
19152;DHT22;9708;53.114;9.388;2024-02-26T07:36:43;3.30;99.90
19152;DHT22;9708;53.114;9.388;2024-02-26T07:39:11;3.40;99.90
19152;DHT22;9708;53.114;9.388;2024-02-26T07:41:37;3.40;99.90
19152;DHT22;9708;53.114;9.388;2024-02-26T07:44:05;3.40;99.90
19152;DHT22;9708;53.114;9.388;2024-02-26T07:46:31;3.40;99.90
19152;DHT22;9708;53.114;9.388;2024-02-26T07:49:00;3.40;99.90
19152;DHT22;9708;53.114;9.388;2024-02-26T07:51:26;3.50;99.90
19152;DHT22;9708;53.114;9.388;2024-02-26T07:53:53;3.60;99.90
19152;DHT22;9708;53.114;9.388;2024-02-26T07:56:20;3.60;99.90
19152;DHT22;9708;53.114;9.388;2024-02-26T07:58:47;3.60;99.90
19152;DHT22;9708;53.114;9.388;2024-02-26T08:01:14;3.60;99.90
19152;DHT22;9708;53.114;9.388;2024-02-26T08:03:41;3.70;99.90
19152;DHT22;9708;53.114;9.388;2024-02-26T08:06:09;3.70;99.90
19152;DHT22;9708;53.114;9.388;2024-02-26T08:08:36;3.80;99.90
19152;DHT22;9708;53.114;9.388;2024-02-26T08:11:03;3.80;99.90
19152;DHT22;9708;53.114;9.388;2024-02-26T08:13:30;3.80;99.90
19152;DHT22;9708;53.114;9.388;2024-02-26T08:15:57;3.80;99.90
19152;DHT22;9708;53.114;9.388;2024-02-26T08:18:24;3.90;99.90
19152;DHT22;9708;53.114;9.388;2024-02-26T08:20:51;3.90;99.90
19152;DHT22;9708;53.114;9.388;2024-02-26T08:23:19;3.90;99.90
19152;DHT22;9708;53.114;9.388;2024-02-26T08:25:46;3.90;99.90
19152;DHT22;9708;53.114;9.388;2024-02-26T08:28:13;4.00;99.90
19152;DHT22;9708;53.114;9.388;2024-02-26T08:30:43;3.90;99.90
19152;DHT22;9708;53.114;9.388;2024-02-26T08:33:10;4.00;99.90
19152;DHT22;9708;53.114;9.388;2024-02-26T08:35:37;4.10;99.90
19152;DHT22;9708;53.114;9.388;2024-02-26T08:38:04;4.10;99.90
19152;DHT22;9708;53.114;9.388;2024-02-26T08:40:32;4.20;99.90
19152;DHT22;9708;53.114;9.388;2024-02-26T08:42:59;4.20;99.90
19152;DHT22;9708;53.114;9.388;2024-02-26T08:45:25;4.30;99.90
19152;DHT22;9708;53.114;9.388;2024-02-26T08:47:52;4.20;99.90
19152;DHT22;9708;53.114;9.388;2024-02-26T08:50:19;4.20;99.90
19152;DHT22;9708;53.114;9.388;2024-02-26T08:52:46;4.30;99.90
19152;DHT22;9708;53.114;9.388;2024-02-26T08:55:16;4.40;99.90
19152;DHT22;9708;53.114;9.388;2024-02-26T08:57:44;4.40;99.90
19152;DHT22;9708;53.114;9.388;2024-02-26T09:00:12;4.50;99.90
19152;DHT22;9708;53.114;9.388;2024-02-26T09:02:41;4.50;99.90
19152;DHT22;9708;53.114;9.388;2024-02-26T09:05:09;4.50;99.90
19152;DHT22;9708;53.114;9.388;2024-02-26T09:07:36;4.60;99.90
19152;DHT22;9708;53.114;9.388;2024-02-26T09:10:04;4.70;99.90
19152;DHT22;9708;53.114;9.388;2024-02-26T09:12:31;4.70;99.90
19152;DHT22;9708;53.114;9.388;2024-02-26T09:14:59;4.90;99.90
19152;DHT22;9708;53.114;9.388;2024-02-26T09:17:26;5.00;99.90
19152;DHT22;9708;53.114;9.388;2024-02-26T09:19:53;5.00;99.90
19152;DHT22;9708;53.114;9.388;2024-02-26T09:22:20;5.10;99.90
19152;DHT22;9708;53.114;9.388;2024-02-26T09:24:47;5.20;99.90
19152;DHT22;9708;53.114;9.388;2024-02-26T09:27:15;5.20;99.90
19152;DHT22;9708;53.114;9.388;2024-02-26T09:29:42;5.30;99.90
19152;DHT22;9708;53.114;9.388;2024-02-26T09:32:10;5.50;99.90
19152;DHT22;9708;53.114;9.388;2024-02-26T09:34:39;5.70;99.90
19152;DHT22;9708;53.114;9.388;2024-02-26T09:37:06;5.90;99.90
19152;DHT22;9708;53.114;9.388;2024-02-26T09:39:33;5.90;99.90
19152;DHT22;9708;53.114;9.388;2024-02-26T09:42:01;5.90;99.90
19152;DHT22;9708;53.114;9.388;2024-02-26T09:44:34;6.00;99.90
19152;DHT22;9708;53.114;9.388;2024-02-26T09:47:05;6.10;99.90
19152;DHT22;9708;53.114;9.388;2024-02-26T09:49:34;6.20;99.90
19152;DHT22;9708;53.114;9.388;2024-02-26T09:52:03;6.20;99.90
19152;DHT22;9708;53.114;9.388;2024-02-26T09:54:31;6.30;99.90
19152;DHT22;9708;53.114;9.388;2024-02-26T09:57:00;6.40;99.90
19152;DHT22;9708;53.114;9.388;2024-02-26T09:59:30;6.40;99.90
19152;DHT22;9708;53.114;9.388;2024-02-26T10:02:01;6.50;99.90
19152;DHT22;9708;53.114;9.388;2024-02-26T10:04:29;6.60;99.90
19152;DHT22;9708;53.114;9.388;2024-02-26T10:06:59;6.50;99.90
19152;DHT22;9708;53.114;9.388;2024-02-26T10:09:28;6.60;99.90
19152;DHT22;9708;53.114;9.388;2024-02-26T10:11:55;6.70;99.90
19152;DHT22;9708;53.114;9.388;2024-02-26T10:14:23;6.80;99.90
19152;DHT22;9708;53.114;9.388;2024-02-26T10:16:50;7.00;99.90
19152;DHT22;9708;53.114;9.388;2024-02-26T10:19:25;7.10;99.90
19152;DHT22;9708;53.114;9.388;2024-02-26T10:21:55;7.20;99.90
19152;DHT22;9708;53.114;9.388;2024-02-26T10:24:24;7.30;99.90
19152;DHT22;9708;53.114;9.388;2024-02-26T10:26:51;7.50;99.90
19152;DHT22;9708;53.114;9.388;2024-02-26T10:29:18;7.70;99.90
19152;DHT22;9708;53.114;9.388;2024-02-26T10:31:46;8.00;99.90
19152;DHT22;9708;53.114;9.388;2024-02-26T10:34:14;8.20;99.90
19152;DHT22;9708;53.114;9.388;2024-02-26T10:36:41;8.10;99.90
19152;DHT22;9708;53.114;9.388;2024-02-26T10:39:09;8.30;99.90
19152;DHT22;9708;53.114;9.388;2024-02-26T10:41:39;8.40;99.90
19152;DHT22;9708;53.114;9.388;2024-02-26T10:44:08;8.70;99.90
19152;DHT22;9708;53.114;9.388;2024-02-26T10:46:36;8.80;99.90
19152;DHT22;9708;53.114;9.388;2024-02-26T10:49:04;9.10;99.90
19152;DHT22;9708;53.114;9.388;2024-02-26T10:51:32;9.30;99.90
19152;DHT22;9708;53.114;9.388;2024-02-26T10:54:04;9.40;99.90
19152;DHT22;9708;53.114;9.388;2024-02-26T10:56:34;9.30;99.90
19152;DHT22;9708;53.114;9.388;2024-02-26T10:59:07;9.40;99.90
19152;DHT22;9708;53.114;9.388;2024-02-26T11:01:35;10.00;99.90
19152;DHT22;9708;53.114;9.388;2024-02-26T11:04:04;10.10;99.90
19152;DHT22;9708;53.114;9.388;2024-02-26T11:06:31;9.80;99.90
19152;DHT22;9708;53.114;9.388;2024-02-26T11:09:01;9.90;99.90
19152;DHT22;9708;53.114;9.388;2024-02-26T11:11:29;10.20;99.90
19152;DHT22;9708;53.114;9.388;2024-02-26T11:13:56;10.20;99.90
19152;DHT22;9708;53.114;9.388;2024-02-26T11:16:26;10.10;99.90
19152;DHT22;9708;53.114;9.388;2024-02-26T11:18:55;10.00;99.90
19152;DHT22;9708;53.114;9.388;2024-02-26T11:21:22;10.30;99.90
19152;DHT22;9708;53.114;9.388;2024-02-26T11:23:56;10.30;99.90
19152;DHT22;9708;53.114;9.388;2024-02-26T11:26:23;10.00;99.90
19152;DHT22;9708;53.114;9.388;2024-02-26T11:28:52;9.90;99.90
19152;DHT22;9708;53.114;9.388;2024-02-26T11:31:20;9.90;99.90
19152;DHT22;9708;53.114;9.388;2024-02-26T11:33:54;9.90;99.90
19152;DHT22;9708;53.114;9.388;2024-02-26T11:36:23;9.70;99.90
19152;DHT22;9708;53.114;9.388;2024-02-26T11:38:51;10.10;99.90
19152;DHT22;9708;53.114;9.388;2024-02-26T11:41:18;10.00;99.90
19152;DHT22;9708;53.114;9.388;2024-02-26T11:43:51;10.00;99.90
19152;DHT22;9708;53.114;9.388;2024-02-26T11:46:28;10.00;99.90
19152;DHT22;9708;53.114;9.388;2024-02-26T11:48:59;10.00;99.90
19152;DHT22;9708;53.114;9.388;2024-02-26T11:51:27;10.00;99.90
19152;DHT22;9708;53.114;9.388;2024-02-26T11:53:54;10.20;99.90
19152;DHT22;9708;53.114;9.388;2024-02-26T11:56:24;10.40;99.90
19152;DHT22;9708;53.114;9.388;2024-02-26T11:58:57;10.70;99.90
19152;DHT22;9708;53.114;9.388;2024-02-26T12:01:41;11.10;99.90
19152;DHT22;9708;53.114;9.388;2024-02-26T12:04:12;11.00;99.90
19152;DHT22;9708;53.114;9.388;2024-02-26T12:06:45;10.80;99.90
19152;DHT22;9708;53.114;9.388;2024-02-26T12:09:12;10.80;99.90
19152;DHT22;9708;53.114;9.388;2024-02-26T12:11:40;10.70;99.90
19152;DHT22;9708;53.114;9.388;2024-02-26T12:14:08;10.70;99.90
19152;DHT22;9708;53.114;9.388;2024-02-26T12:16:36;10.70;99.90
19152;DHT22;9708;53.114;9.388;2024-02-26T12:19:05;10.60;99.90
19152;DHT22;9708;53.114;9.388;2024-02-26T12:21:35;10.80;99.90
19152;DHT22;9708;53.114;9.388;2024-02-26T12:24:12;10.90;99.90
19152;DHT22;9708;53.114;9.388;2024-02-26T12:26:40;10.90;99.90
19152;DHT22;9708;53.114;9.388;2024-02-26T12:29:07;11.20;99.90
19152;DHT22;9708;53.114;9.388;2024-02-26T12:31:35;11.30;99.90
19152;DHT22;9708;53.114;9.388;2024-02-26T12:34:02;11.60;99.90
19152;DHT22;9708;53.114;9.388;2024-02-26T12:36:29;11.40;99.90
19152;DHT22;9708;53.114;9.388;2024-02-26T12:38:57;11.40;99.90
19152;DHT22;9708;53.114;9.388;2024-02-26T12:41:26;11.30;99.90
19152;DHT22;9708;53.114;9.388;2024-02-26T12:43:53;11.20;99.90
19152;DHT22;9708;53.114;9.388;2024-02-26T12:46:21;11.30;99.90
19152;DHT22;9708;53.114;9.388;2024-02-26T12:48:48;11.30;99.90
19152;DHT22;9708;53.114;9.388;2024-02-26T12:51:16;11.40;99.90
19152;DHT22;9708;53.114;9.388;2024-02-26T12:53:44;11.40;99.90
19152;DHT22;9708;53.114;9.388;2024-02-26T12:56:12;11.50;99.90
19152;DHT22;9708;53.114;9.388;2024-02-26T12:58:40;11.30;99.90
19152;DHT22;9708;53.114;9.388;2024-02-26T13:01:07;11.30;99.90
19152;DHT22;9708;53.114;9.388;2024-02-26T13:03:40;11.30;99.90
19152;DHT22;9708;53.114;9.388;2024-02-26T13:06:08;11.20;99.90
19152;DHT22;9708;53.114;9.388;2024-02-26T13:08:35;11.20;99.90
19152;DHT22;9708;53.114;9.388;2024-02-26T13:11:02;11.20;99.90
19152;DHT22;9708;53.114;9.388;2024-02-26T13:13:30;11.20;99.90
19152;DHT22;9708;53.114;9.388;2024-02-26T13:16:02;11.20;99.90
19152;DHT22;9708;53.114;9.388;2024-02-26T13:18:29;11.10;99.90
19152;DHT22;9708;53.114;9.388;2024-02-26T13:21:07;11.20;99.90
19152;DHT22;9708;53.114;9.388;2024-02-26T13:23:34;10.80;99.90
19152;DHT22;9708;53.114;9.388;2024-02-26T13:26:01;10.60;99.90
19152;DHT22;9708;53.114;9.388;2024-02-26T13:28:29;10.40;99.90
19152;DHT22;9708;53.114;9.388;2024-02-26T13:30:57;10.20;99.90
19152;DHT22;9708;53.114;9.388;2024-02-26T13:33:26;10.20;99.90
19152;DHT22;9708;53.114;9.388;2024-02-26T13:35:54;10.10;99.90
19152;DHT22;9708;53.114;9.388;2024-02-26T13:38:21;9.90;99.90
19152;DHT22;9708;53.114;9.388;2024-02-26T13:40:49;9.80;99.90
19152;DHT22;9708;53.114;9.388;2024-02-26T13:43:16;9.70;99.90
19152;DHT22;9708;53.114;9.388;2024-02-26T13:45:44;9.60;99.90
19152;DHT22;9708;53.114;9.388;2024-02-26T13:48:11;9.40;99.90
19152;DHT22;9708;53.114;9.388;2024-02-26T13:50:39;9.40;99.90
19152;DHT22;9708;53.114;9.388;2024-02-26T13:53:05;9.40;99.90
19152;DHT22;9708;53.114;9.388;2024-02-26T13:55:33;9.40;99.90
19152;DHT22;9708;53.114;9.388;2024-02-26T13:58:00;9.20;99.90
19152;DHT22;9708;53.114;9.388;2024-02-26T14:00:28;9.20;99.90
19152;DHT22;9708;53.114;9.388;2024-02-26T14:02:57;9.30;99.90
19152;DHT22;9708;53.114;9.388;2024-02-26T14:05:24;9.20;99.90
19152;DHT22;9708;53.114;9.388;2024-02-26T14:07:51;9.40;99.90
19152;DHT22;9708;53.114;9.388;2024-02-26T14:10:18;9.30;99.90
19152;DHT22;9708;53.114;9.388;2024-02-26T14:12:45;9.20;99.90
19152;DHT22;9708;53.114;9.388;2024-02-26T14:15:12;9.10;99.90
19152;DHT22;9708;53.114;9.388;2024-02-26T14:17:39;9.10;99.90
19152;DHT22;9708;53.114;9.388;2024-02-26T14:20:08;9.10;99.90
19152;DHT22;9708;53.114;9.388;2024-02-26T14:22:36;9.00;99.90
19152;DHT22;9708;53.114;9.388;2024-02-26T14:25:03;9.10;99.90
19152;DHT22;9708;53.114;9.388;2024-02-26T14:27:30;9.00;99.90
19152;DHT22;9708;53.114;9.388;2024-02-26T14:29:57;9.10;99.90
19152;DHT22;9708;53.114;9.388;2024-02-26T14:32:23;9.00;99.90
19152;DHT22;9708;53.114;9.388;2024-02-26T14:34:50;9.00;99.90
19152;DHT22;9708;53.114;9.388;2024-02-26T14:37:18;9.00;99.90
19152;DHT22;9708;53.114;9.388;2024-02-26T14:39:45;9.10;99.90
19152;DHT22;9708;53.114;9.388;2024-02-26T14:42:14;9.00;99.90
19152;DHT22;9708;53.114;9.388;2024-02-26T14:44:43;9.00;99.90
19152;DHT22;9708;53.114;9.388;2024-02-26T14:47:10;8.90;99.90
19152;DHT22;9708;53.114;9.388;2024-02-26T14:49:36;9.00;99.90
19152;DHT22;9708;53.114;9.388;2024-02-26T14:52:04;8.90;99.90
19152;DHT22;9708;53.114;9.388;2024-02-26T14:54:33;8.80;99.90
19152;DHT22;9708;53.114;9.388;2024-02-26T14:57:03;8.70;99.90
19152;DHT22;9708;53.114;9.388;2024-02-26T14:59:30;8.70;99.90
19152;DHT22;9708;53.114;9.388;2024-02-26T15:01:57;8.70;99.90
19152;DHT22;9708;53.114;9.388;2024-02-26T15:04:25;8.60;99.90
19152;DHT22;9708;53.114;9.388;2024-02-26T15:06:52;8.60;99.90
19152;DHT22;9708;53.114;9.388;2024-02-26T15:09:19;8.60;99.90
19152;DHT22;9708;53.114;9.388;2024-02-26T15:11:47;8.50;99.90
19152;DHT22;9708;53.114;9.388;2024-02-26T15:14:14;8.50;99.90
19152;DHT22;9708;53.114;9.388;2024-02-26T15:16:41;8.50;99.90
19152;DHT22;9708;53.114;9.388;2024-02-26T15:19:08;8.40;99.90
19152;DHT22;9708;53.114;9.388;2024-02-26T15:21:41;8.40;99.90
19152;DHT22;9708;53.114;9.388;2024-02-26T15:24:08;8.30;99.90
19152;DHT22;9708;53.114;9.388;2024-02-26T15:26:36;8.30;99.90
19152;DHT22;9708;53.114;9.388;2024-02-26T15:29:04;8.20;99.90
19152;DHT22;9708;53.114;9.388;2024-02-26T15:31:31;8.10;99.90
19152;DHT22;9708;53.114;9.388;2024-02-26T15:33:58;8.10;99.90
19152;DHT22;9708;53.114;9.388;2024-02-26T15:36:25;8.00;99.90
19152;DHT22;9708;53.114;9.388;2024-02-26T15:38:52;8.00;99.90
19152;DHT22;9708;53.114;9.388;2024-02-26T15:41:20;7.90;99.90
19152;DHT22;9708;53.114;9.388;2024-02-26T15:43:47;7.80;99.90
19152;DHT22;9708;53.114;9.388;2024-02-26T15:46:15;7.80;99.90
19152;DHT22;9708;53.114;9.388;2024-02-26T15:48:42;7.80;99.90
19152;DHT22;9708;53.114;9.388;2024-02-26T15:51:18;7.80;99.90
19152;DHT22;9708;53.114;9.388;2024-02-26T15:53:45;7.70;99.90
19152;DHT22;9708;53.114;9.388;2024-02-26T15:56:12;7.60;99.90
19152;DHT22;9708;53.114;9.388;2024-02-26T15:58:40;7.60;99.90
19152;DHT22;9708;53.114;9.388;2024-02-26T16:01:07;7.60;99.90
19152;DHT22;9708;53.114;9.388;2024-02-26T16:03:37;7.50;99.90